sensor_id;sensor_type;location;lat;lon;timestamp;P1;durP1;ratioP1;P2;durP2;ratioP2
13469;SDS011;6807;48.682;9.032;2022-09-09T00:01:49;3.83;;;1.40;;
13469;SDS011;6807;48.682;9.032;2022-09-09T00:04:22;3.03;;;1.85;;
13469;SDS011;6807;48.682;9.032;2022-09-09T00:06:55;3.90;;;1.20;;
13469;SDS011;6807;48.682;9.032;2022-09-09T00:09:25;4.22;;;2.00;;
13469;SDS011;6807;48.682;9.032;2022-09-09T00:11:54;4.20;;;1.40;;
13469;SDS011;6807;48.682;9.032;2022-09-09T00:14:31;2.83;;;1.73;;
13469;SDS011;6807;48.682;9.032;2022-09-09T00:17:04;2.45;;;1.60;;
13469;SDS011;6807;48.682;9.032;2022-09-09T00:19:36;1.50;;;1.40;;
13469;SDS011;6807;48.682;9.032;2022-09-09T00:22:14;2.13;;;1.40;;
13469;SDS011;6807;48.682;9.032;2022-09-09T00:24:43;2.25;;;1.35;;
13469;SDS011;6807;48.682;9.032;2022-09-09T00:27:14;2.47;;;1.55;;
13469;SDS011;6807;48.682;9.032;2022-09-09T00:29:43;2.58;;;1.50;;
13469;SDS011;6807;48.682;9.032;2022-09-09T00:32:14;2.47;;;1.60;;
13469;SDS011;6807;48.682;9.032;2022-09-09T00:34:46;5.75;;;1.77;;
13469;SDS011;6807;48.682;9.032;2022-09-09T00:37:14;3.25;;;1.45;;
13469;SDS011;6807;48.682;9.032;2022-09-09T00:39:42;3.20;;;1.23;;
13469;SDS011;6807;48.682;9.032;2022-09-09T00:42:12;4.72;;;1.67;;
13469;SDS011;6807;48.682;9.032;2022-09-09T00:44:44;7.57;;;1.50;;
13469;SDS011;6807;48.682;9.032;2022-09-09T00:47:25;3.95;;;1.17;;
13469;SDS011;6807;48.682;9.032;2022-09-09T00:49:59;2.22;;;1.83;;
13469;SDS011;6807;48.682;9.032;2022-09-09T00:52:32;2.85;;;1.48;;
13469;SDS011;6807;48.682;9.032;2022-09-09T00:55:03;1.77;;;1.45;;
13469;SDS011;6807;48.682;9.032;2022-09-09T00:57:35;4.88;;;1.85;;
13469;SDS011;6807;48.682;9.032;2022-09-09T01:03:10;4.95;;;1.48;;
13469;SDS011;6807;48.682;9.032;2022-09-09T01:05:46;6.25;;;2.22;;
13469;SDS011;6807;48.682;9.032;2022-09-09T01:08:25;3.78;;;1.30;;
13469;SDS011;6807;48.682;9.032;2022-09-09T01:10:58;4.25;;;1.50;;
13469;SDS011;6807;48.682;9.032;2022-09-09T01:13:28;2.47;;;1.33;;
13469;SDS011;6807;48.682;9.032;2022-09-09T01:15:57;1.67;;;1.30;;
13469;SDS011;6807;48.682;9.032;2022-09-09T01:18:27;1.40;;;1.30;;
13469;SDS011;6807;48.682;9.032;2022-09-09T01:21:03;1.42;;;1.25;;
13469;SDS011;6807;48.682;9.032;2022-09-09T01:23:38;3.60;;;1.65;;
13469;SDS011;6807;48.682;9.032;2022-09-09T01:26:22;3.00;;;1.38;;
13469;SDS011;6807;48.682;9.032;2022-09-09T01:28:50;1.42;;;1.23;;
13469;SDS011;6807;48.682;9.032;2022-09-09T01:31:19;4.22;;;1.70;;
13469;SDS011;6807;48.682;9.032;2022-09-09T01:33:48;3.95;;;1.60;;
13469;SDS011;6807;48.682;9.032;2022-09-09T01:36:18;3.92;;;1.50;;
13469;SDS011;6807;48.682;9.032;2022-09-09T01:38:47;3.95;;;2.47;;
13469;SDS011;6807;48.682;9.032;2022-09-09T01:41:14;4.28;;;1.77;;
13469;SDS011;6807;48.682;9.032;2022-09-09T01:43:42;1.40;;;1.30;;
13469;SDS011;6807;48.682;9.032;2022-09-09T01:46:10;2.03;;;1.50;;
13469;SDS011;6807;48.682;9.032;2022-09-09T01:48:38;1.55;;;1.25;;
13469;SDS011;6807;48.682;9.032;2022-09-09T01:51:07;3.78;;;1.50;;
13469;SDS011;6807;48.682;9.032;2022-09-09T01:53:35;2.60;;;1.60;;
13469;SDS011;6807;48.682;9.032;2022-09-09T01:56:07;3.75;;;1.40;;
13469;SDS011;6807;48.682;9.032;2022-09-09T01:58:47;2.53;;;1.50;;
13469;SDS011;6807;48.682;9.032;2022-09-09T02:01:22;2.25;;;1.55;;
13469;SDS011;6807;48.682;9.032;2022-09-09T02:03:51;4.97;;;1.60;;
13469;SDS011;6807;48.682;9.032;2022-09-09T02:06:24;2.97;;;1.40;;
13469;SDS011;6807;48.682;9.032;2022-09-09T02:08:57;2.17;;;1.55;;
13469;SDS011;6807;48.682;9.032;2022-09-09T02:11:26;3.38;;;2.25;;
13469;SDS011;6807;48.682;9.032;2022-09-09T02:13:56;1.90;;;1.70;;
13469;SDS011;6807;48.682;9.032;2022-09-09T02:16:31;2.53;;;1.70;;
13469;SDS011;6807;48.682;9.032;2022-09-09T02:19:05;2.30;;;1.60;;
13469;SDS011;6807;48.682;9.032;2022-09-09T02:21:34;5.38;;;2.15;;
13469;SDS011;6807;48.682;9.032;2022-09-09T02:24:03;2.45;;;2.10;;
13469;SDS011;6807;48.682;9.032;2022-09-09T02:26:35;3.60;;;1.80;;
13469;SDS011;6807;48.682;9.032;2022-09-09T02:29:05;2.42;;;1.50;;
13469;SDS011;6807;48.682;9.032;2022-09-09T02:31:33;4.60;;;1.65;;
13469;SDS011;6807;48.682;9.032;2022-09-09T02:34:01;2.58;;;1.40;;
13469;SDS011;6807;48.682;9.032;2022-09-09T02:36:32;2.60;;;1.38;;
13469;SDS011;6807;48.682;9.032;2022-09-09T02:39:00;2.80;;;2.00;;
13469;SDS011;6807;48.682;9.032;2022-09-09T02:41:31;1.92;;;1.50;;
13469;SDS011;6807;48.682;9.032;2022-09-09T02:43:59;3.20;;;1.55;;
13469;SDS011;6807;48.682;9.032;2022-09-09T02:46:40;2.90;;;1.67;;
13469;SDS011;6807;48.682;9.032;2022-09-09T02:49:18;1.98;;;1.48;;
13469;SDS011;6807;48.682;9.032;2022-09-09T02:51:53;3.35;;;2.13;;
13469;SDS011;6807;48.682;9.032;2022-09-09T02:54:27;8.60;;;1.90;;
13469;SDS011;6807;48.682;9.032;2022-09-09T02:56:56;1.67;;;1.48;;
13469;SDS011;6807;48.682;9.032;2022-09-09T02:59:30;6.40;;;1.58;;
13469;SDS011;6807;48.682;9.032;2022-09-09T03:01:58;1.95;;;1.30;;
13469;SDS011;6807;48.682;9.032;2022-09-09T03:04:26;4.13;;;1.70;;
13469;SDS011;6807;48.682;9.032;2022-09-09T03:06:53;5.20;;;2.00;;
13469;SDS011;6807;48.682;9.032;2022-09-09T03:09:20;4.55;;;1.40;;
13469;SDS011;6807;48.682;9.032;2022-09-09T03:11:47;2.55;;;1.50;;
13469;SDS011;6807;48.682;9.032;2022-09-09T03:14:15;5.80;;;1.90;;
13469;SDS011;6807;48.682;9.032;2022-09-09T03:16:46;4.63;;;1.60;;
13469;SDS011;6807;48.682;9.032;2022-09-09T03:19:14;4.90;;;1.80;;
13469;SDS011;6807;48.682;9.032;2022-09-09T03:21:43;2.90;;;1.80;;
13469;SDS011;6807;48.682;9.032;2022-09-09T03:24:10;1.85;;;1.70;;
13469;SDS011;6807;48.682;9.032;2022-09-09T03:26:38;2.70;;;1.50;;
13469;SDS011;6807;48.682;9.032;2022-09-09T03:29:06;1.83;;;1.50;;
13469;SDS011;6807;48.682;9.032;2022-09-09T03:31:33;4.18;;;1.60;;
13469;SDS011;6807;48.682;9.032;2022-09-09T03:34:01;2.45;;;1.50;;
13469;SDS011;6807;48.682;9.032;2022-09-09T03:36:29;2.10;;;1.40;;
13469;SDS011;6807;48.682;9.032;2022-09-09T03:38:57;3.42;;;1.48;;
13469;SDS011;6807;48.682;9.032;2022-09-09T03:41:24;3.08;;;1.50;;
13469;SDS011;6807;48.682;9.032;2022-09-09T03:43:54;2.80;;;1.70;;
13469;SDS011;6807;48.682;9.032;2022-09-09T03:46:24;2.17;;;1.40;;
13469;SDS011;6807;48.682;9.032;2022-09-09T03:48:51;2.42;;;1.60;;
13469;SDS011;6807;48.682;9.032;2022-09-09T03:51:18;1.48;;;1.33;;
13469;SDS011;6807;48.682;9.032;2022-09-09T03:53:49;2.28;;;1.50;;
13469;SDS011;6807;48.682;9.032;2022-09-09T03:56:18;2.78;;;1.52;;
13469;SDS011;6807;48.682;9.032;2022-09-09T03:58:47;2.25;;;1.60;;
13469;SDS011;6807;48.682;9.032;2022-09-09T04:01:15;3.80;;;1.90;;
13469;SDS011;6807;48.682;9.032;2022-09-09T04:03:43;4.82;;;1.38;;
13469;SDS011;6807;48.682;9.032;2022-09-09T04:06:11;3.60;;;1.50;;
13469;SDS011;6807;48.682;9.032;2022-09-09T04:08:39;4.63;;;2.03;;
13469;SDS011;6807;48.682;9.032;2022-09-09T04:11:08;2.25;;;1.40;;
13469;SDS011;6807;48.682;9.032;2022-09-09T04:13:35;4.00;;;1.60;;
13469;SDS011;6807;48.682;9.032;2022-09-09T04:16:04;3.22;;;1.45;;
13469;SDS011;6807;48.682;9.032;2022-09-09T04:18:31;8.23;;;1.98;;
13469;SDS011;6807;48.682;9.032;2022-09-09T04:20:59;4.18;;;1.70;;
13469;SDS011;6807;48.682;9.032;2022-09-09T04:23:27;1.58;;;1.48;;
13469;SDS011;6807;48.682;9.032;2022-09-09T04:25:55;3.35;;;1.70;;
13469;SDS011;6807;48.682;9.032;2022-09-09T04:28:24;2.80;;;1.60;;
13469;SDS011;6807;48.682;9.032;2022-09-09T04:30:52;5.05;;;1.75;;
13469;SDS011;6807;48.682;9.032;2022-09-09T04:33:20;4.40;;;1.60;;
13469;SDS011;6807;48.682;9.032;2022-09-09T04:35:48;2.00;;;1.42;;
13469;SDS011;6807;48.682;9.032;2022-09-09T04:38:15;2.13;;;1.60;;
13469;SDS011;6807;48.682;9.032;2022-09-09T04:40:42;1.98;;;1.60;;
13469;SDS011;6807;48.682;9.032;2022-09-09T04:43:11;2.53;;;1.75;;
13469;SDS011;6807;48.682;9.032;2022-09-09T04:45:40;4.00;;;1.45;;
13469;SDS011;6807;48.682;9.032;2022-09-09T04:48:08;2.85;;;1.40;;
13469;SDS011;6807;48.682;9.032;2022-09-09T04:50:35;4.82;;;1.50;;
13469;SDS011;6807;48.682;9.032;2022-09-09T04:53:02;5.25;;;1.58;;
13469;SDS011;6807;48.682;9.032;2022-09-09T04:55:30;2.80;;;1.67;;
13469;SDS011;6807;48.682;9.032;2022-09-09T04:57:57;3.80;;;1.63;;
13469;SDS011;6807;48.682;9.032;2022-09-09T05:00:24;3.90;;;1.70;;
13469;SDS011;6807;48.682;9.032;2022-09-09T05:02:53;2.40;;;1.40;;
13469;SDS011;6807;48.682;9.032;2022-09-09T05:05:20;3.35;;;1.50;;
13469;SDS011;6807;48.682;9.032;2022-09-09T05:07:47;2.78;;;1.40;;
13469;SDS011;6807;48.682;9.032;2022-09-09T05:10:15;8.55;;;1.77;;
13469;SDS011;6807;48.682;9.032;2022-09-09T05:12:43;3.20;;;1.65;;
13469;SDS011;6807;48.682;9.032;2022-09-09T05:15:18;1.90;;;1.30;;
13469;SDS011;6807;48.682;9.032;2022-09-09T05:17:46;2.33;;;1.58;;
13469;SDS011;6807;48.682;9.032;2022-09-09T05:20:14;1.55;;;1.40;;
13469;SDS011;6807;48.682;9.032;2022-09-09T05:22:41;3.72;;;1.65;;
13469;SDS011;6807;48.682;9.032;2022-09-09T05:25:09;2.72;;;1.50;;
13469;SDS011;6807;48.682;9.032;2022-09-09T05:27:36;2.28;;;1.45;;
13469;SDS011;6807;48.682;9.032;2022-09-09T05:30:04;3.55;;;1.83;;
13469;SDS011;6807;48.682;9.032;2022-09-09T05:32:32;5.88;;;1.83;;
13469;SDS011;6807;48.682;9.032;2022-09-09T05:34:59;2.38;;;1.50;;
13469;SDS011;6807;48.682;9.032;2022-09-09T05:37:28;2.60;;;1.60;;
13469;SDS011;6807;48.682;9.032;2022-09-09T05:39:57;2.55;;;1.80;;
13469;SDS011;6807;48.682;9.032;2022-09-09T05:45:01;4.45;;;1.70;;
13469;SDS011;6807;48.682;9.032;2022-09-09T05:47:29;2.28;;;1.67;;
13469;SDS011;6807;48.682;9.032;2022-09-09T05:49:56;5.03;;;1.48;;
13469;SDS011;6807;48.682;9.032;2022-09-09T05:52:23;2.40;;;1.30;;
13469;SDS011;6807;48.682;9.032;2022-09-09T05:54:52;4.95;;;1.35;;
13469;SDS011;6807;48.682;9.032;2022-09-09T05:57:20;2.10;;;1.60;;
13469;SDS011;6807;48.682;9.032;2022-09-09T05:59:47;2.97;;;1.50;;
13469;SDS011;6807;48.682;9.032;2022-09-09T06:02:14;3.88;;;1.83;;
13469;SDS011;6807;48.682;9.032;2022-09-09T06:04:42;1.80;;;1.25;;
13469;SDS011;6807;48.682;9.032;2022-09-09T06:07:09;1.85;;;1.48;;
13469;SDS011;6807;48.682;9.032;2022-09-09T06:09:36;2.90;;;1.40;;
13469;SDS011;6807;48.682;9.032;2022-09-09T06:12:05;4.32;;;1.58;;
13469;SDS011;6807;48.682;9.032;2022-09-09T06:14:32;3.97;;;1.50;;
13469;SDS011;6807;48.682;9.032;2022-09-09T06:16:59;3.63;;;1.80;;
13469;SDS011;6807;48.682;9.032;2022-09-09T06:19:27;6.07;;;1.95;;
13469;SDS011;6807;48.682;9.032;2022-09-09T06:21:55;2.65;;;1.50;;
13469;SDS011;6807;48.682;9.032;2022-09-09T06:24:23;1.60;;;1.48;;
13469;SDS011;6807;48.682;9.032;2022-09-09T06:26:50;2.50;;;1.52;;
13469;SDS011;6807;48.682;9.032;2022-09-09T06:29:26;4.35;;;1.70;;
13469;SDS011;6807;48.682;9.032;2022-09-09T06:31:53;2.75;;;1.77;;
13469;SDS011;6807;48.682;9.032;2022-09-09T06:34:21;7.18;;;1.63;;
13469;SDS011;6807;48.682;9.032;2022-09-09T06:36:48;5.47;;;1.73;;
13469;SDS011;6807;48.682;9.032;2022-09-09T06:39:17;1.98;;;1.70;;
13469;SDS011;6807;48.682;9.032;2022-09-09T06:41:44;2.83;;;1.80;;
13469;SDS011;6807;48.682;9.032;2022-09-09T06:44:12;2.15;;;1.60;;
13469;SDS011;6807;48.682;9.032;2022-09-09T06:46:41;1.85;;;1.67;;
13469;SDS011;6807;48.682;9.032;2022-09-09T06:49:09;1.95;;;1.30;;
13469;SDS011;6807;48.682;9.032;2022-09-09T06:51:37;3.03;;;1.52;;
13469;SDS011;6807;48.682;9.032;2022-09-09T06:54:07;5.43;;;1.88;;
13469;SDS011;6807;48.682;9.032;2022-09-09T06:56:35;2.83;;;1.40;;
13469;SDS011;6807;48.682;9.032;2022-09-09T06:59:05;5.05;;;1.50;;
13469;SDS011;6807;48.682;9.032;2022-09-09T07:01:34;1.75;;;1.50;;
13469;SDS011;6807;48.682;9.032;2022-09-09T07:04:04;3.38;;;1.50;;
13469;SDS011;6807;48.682;9.032;2022-09-09T07:06:33;2.03;;;1.45;;
13469;SDS011;6807;48.682;9.032;2022-09-09T07:09:01;3.83;;;1.40;;
13469;SDS011;6807;48.682;9.032;2022-09-09T07:11:31;3.47;;;1.95;;
13469;SDS011;6807;48.682;9.032;2022-09-09T07:13:58;1.65;;;1.50;;
13469;SDS011;6807;48.682;9.032;2022-09-09T07:16:26;6.38;;;2.05;;
13469;SDS011;6807;48.682;9.032;2022-09-09T07:18:54;1.95;;;1.35;;
13469;SDS011;6807;48.682;9.032;2022-09-09T07:21:24;2.72;;;1.70;;
13469;SDS011;6807;48.682;9.032;2022-09-09T07:23:52;4.22;;;1.40;;
13469;SDS011;6807;48.682;9.032;2022-09-09T07:26:20;2.33;;;1.40;;
13469;SDS011;6807;48.682;9.032;2022-09-09T07:28:49;2.67;;;1.63;;
13469;SDS011;6807;48.682;9.032;2022-09-09T07:31:17;2.88;;;1.40;;
13469;SDS011;6807;48.682;9.032;2022-09-09T07:33:45;2.78;;;1.65;;
13469;SDS011;6807;48.682;9.032;2022-09-09T07:36:14;2.70;;;1.70;;
13469;SDS011;6807;48.682;9.032;2022-09-09T07:38:43;2.05;;;1.40;;
13469;SDS011;6807;48.682;9.032;2022-09-09T07:41:11;2.78;;;1.65;;
13469;SDS011;6807;48.682;9.032;2022-09-09T07:43:39;2.70;;;1.35;;
13469;SDS011;6807;48.682;9.032;2022-09-09T07:46:07;2.78;;;1.50;;
13469;SDS011;6807;48.682;9.032;2022-09-09T07:48:34;3.55;;;1.45;;
13469;SDS011;6807;48.682;9.032;2022-09-09T07:51:03;2.80;;;1.45;;
13469;SDS011;6807;48.682;9.032;2022-09-09T07:53:31;3.15;;;1.38;;
13469;SDS011;6807;48.682;9.032;2022-09-09T07:56:03;3.92;;;1.42;;
13469;SDS011;6807;48.682;9.032;2022-09-09T07:58:30;1.27;;;1.17;;
13469;SDS011;6807;48.682;9.032;2022-09-09T08:00:57;2.50;;;1.63;;
13469;SDS011;6807;48.682;9.032;2022-09-09T08:03:24;2.97;;;1.40;;
13469;SDS011;6807;48.682;9.032;2022-09-09T08:05:51;3.53;;;1.40;;
13469;SDS011;6807;48.682;9.032;2022-09-09T08:08:18;5.63;;;1.90;;
13469;SDS011;6807;48.682;9.032;2022-09-09T08:10:45;1.88;;;1.30;;
13469;SDS011;6807;48.682;9.032;2022-09-09T08:13:13;4.70;;;1.30;;
13469;SDS011;6807;48.682;9.032;2022-09-09T08:15:40;1.70;;;1.40;;
13469;SDS011;6807;48.682;9.032;2022-09-09T08:18:08;2.60;;;1.40;;
13469;SDS011;6807;48.682;9.032;2022-09-09T08:20:35;2.70;;;1.42;;
13469;SDS011;6807;48.682;9.032;2022-09-09T08:23:03;3.78;;;1.73;;
13469;SDS011;6807;48.682;9.032;2022-09-09T08:25:30;4.78;;;1.65;;
13469;SDS011;6807;48.682;9.032;2022-09-09T08:27:59;6.45;;;1.88;;
13469;SDS011;6807;48.682;9.032;2022-09-09T08:30:28;5.07;;;1.60;;
13469;SDS011;6807;48.682;9.032;2022-09-09T08:32:55;3.15;;;1.80;;
13469;SDS011;6807;48.682;9.032;2022-09-09T08:35:21;1.58;;;1.10;;
13469;SDS011;6807;48.682;9.032;2022-09-09T08:37:53;2.35;;;1.27;;
13469;SDS011;6807;48.682;9.032;2022-09-09T08:40:28;3.42;;;1.67;;
13469;SDS011;6807;48.682;9.032;2022-09-09T08:42:59;3.05;;;1.40;;
13469;SDS011;6807;48.682;9.032;2022-09-09T08:45:31;3.63;;;1.92;;
13469;SDS011;6807;48.682;9.032;2022-09-09T08:48:10;3.08;;;1.38;;
13469;SDS011;6807;48.682;9.032;2022-09-09T08:50:47;3.30;;;1.55;;
13469;SDS011;6807;48.682;9.032;2022-09-09T08:53:17;1.98;;;1.27;;
13469;SDS011;6807;48.682;9.032;2022-09-09T08:55:47;3.33;;;1.58;;
13469;SDS011;6807;48.682;9.032;2022-09-09T08:58:16;3.00;;;1.33;;
13469;SDS011;6807;48.682;9.032;2022-09-09T09:01:00;3.85;;;1.83;;
13469;SDS011;6807;48.682;9.032;2022-09-09T09:03:41;2.50;;;1.80;;
13469;SDS011;6807;48.682;9.032;2022-09-09T09:06:19;4.47;;;1.70;;
13469;SDS011;6807;48.682;9.032;2022-09-09T09:08:55;6.28;;;1.50;;
13469;SDS011;6807;48.682;9.032;2022-09-09T09:11:27;1.60;;;1.13;;
13469;SDS011;6807;48.682;9.032;2022-09-09T09:14:01;4.70;;;1.60;;
13469;SDS011;6807;48.682;9.032;2022-09-09T09:16:34;2.20;;;1.80;;
13469;SDS011;6807;48.682;9.032;2022-09-09T09:19:05;3.00;;;1.70;;
13469;SDS011;6807;48.682;9.032;2022-09-09T09:21:39;1.65;;;1.40;;
13469;SDS011;6807;48.682;9.032;2022-09-09T09:24:12;3.17;;;1.60;;
13469;SDS011;6807;48.682;9.032;2022-09-09T09:26:43;1.98;;;1.20;;
13469;SDS011;6807;48.682;9.032;2022-09-09T09:29:11;1.20;;;1.05;;
13469;SDS011;6807;48.682;9.032;2022-09-09T09:31:43;2.20;;;1.30;;
13469;SDS011;6807;48.682;9.032;2022-09-09T09:34:13;2.40;;;1.17;;
13469;SDS011;6807;48.682;9.032;2022-09-09T09:36:41;2.45;;;1.55;;
13469;SDS011;6807;48.682;9.032;2022-09-09T09:39:21;1.80;;;1.50;;
13469;SDS011;6807;48.682;9.032;2022-09-09T09:41:50;3.60;;;1.50;;
13469;SDS011;6807;48.682;9.032;2022-09-09T09:44:22;3.03;;;1.30;;
13469;SDS011;6807;48.682;9.032;2022-09-09T09:46:52;2.72;;;1.50;;
13469;SDS011;6807;48.682;9.032;2022-09-09T09:49:19;3.08;;;1.70;;
13469;SDS011;6807;48.682;9.032;2022-09-09T09:51:45;2.67;;;1.40;;
13469;SDS011;6807;48.682;9.032;2022-09-09T09:54:15;3.30;;;1.40;;
13469;SDS011;6807;48.682;9.032;2022-09-09T09:56:48;4.88;;;1.60;;
13469;SDS011;6807;48.682;9.032;2022-09-09T09:59:22;3.90;;;1.60;;
13469;SDS011;6807;48.682;9.032;2022-09-09T10:02:10;3.65;;;1.27;;
13469;SDS011;6807;48.682;9.032;2022-09-09T10:04:45;1.85;;;1.50;;
13469;SDS011;6807;48.682;9.032;2022-09-09T10:07:13;2.03;;;1.42;;
13469;SDS011;6807;48.682;9.032;2022-09-09T10:09:44;2.50;;;1.30;;
13469;SDS011;6807;48.682;9.032;2022-09-09T10:12:16;3.50;;;1.45;;
13469;SDS011;6807;48.682;9.032;2022-09-09T10:14:53;3.22;;;1.50;;
13469;SDS011;6807;48.682;9.032;2022-09-09T10:17:32;4.05;;;1.50;;
13469;SDS011;6807;48.682;9.032;2022-09-09T10:20:12;1.85;;;1.42;;
13469;SDS011;6807;48.682;9.032;2022-09-09T10:22:51;3.15;;;1.67;;
13469;SDS011;6807;48.682;9.032;2022-09-09T10:25:27;1.92;;;1.30;;
13469;SDS011;6807;48.682;9.032;2022-09-09T10:28:10;3.97;;;1.67;;
13469;SDS011;6807;48.682;9.032;2022-09-09T10:31:01;2.00;;;1.48;;
13469;SDS011;6807;48.682;9.032;2022-09-09T10:33:41;4.85;;;1.60;;
13469;SDS011;6807;48.682;9.032;2022-09-09T10:36:17;3.03;;;1.50;;
13469;SDS011;6807;48.682;9.032;2022-09-09T10:38:47;4.35;;;1.25;;
13469;SDS011;6807;48.682;9.032;2022-09-09T10:41:19;3.10;;;1.50;;
13469;SDS011;6807;48.682;9.032;2022-09-09T10:44:02;3.33;;;1.30;;
13469;SDS011;6807;48.682;9.032;2022-09-09T10:46:41;5.43;;;1.70;;
13469;SDS011;6807;48.682;9.032;2022-09-09T10:49:32;3.75;;;1.70;;
13469;SDS011;6807;48.682;9.032;2022-09-09T10:52:20;4.18;;;1.45;;
13469;SDS011;6807;48.682;9.032;2022-09-09T10:54:55;5.40;;;1.52;;
13469;SDS011;6807;48.682;9.032;2022-09-09T10:57:27;4.13;;;1.63;;
13469;SDS011;6807;48.682;9.032;2022-09-09T10:59:58;2.30;;;1.55;;
13469;SDS011;6807;48.682;9.032;2022-09-09T11:02:30;2.50;;;1.45;;
13469;SDS011;6807;48.682;9.032;2022-09-09T11:05:01;5.35;;;1.75;;
13469;SDS011;6807;48.682;9.032;2022-09-09T11:07:33;2.40;;;1.33;;
13469;SDS011;6807;48.682;9.032;2022-09-09T11:10:05;4.78;;;1.48;;
13469;SDS011;6807;48.682;9.032;2022-09-09T11:12:45;1.70;;;1.00;;
13469;SDS011;6807;48.682;9.032;2022-09-09T11:15:17;2.22;;;1.15;;
13469;SDS011;6807;48.682;9.032;2022-09-09T11:17:49;1.85;;;1.23;;
13469;SDS011;6807;48.682;9.032;2022-09-09T11:20:21;2.60;;;1.48;;
13469;SDS011;6807;48.682;9.032;2022-09-09T11:22:50;2.22;;;1.33;;
13469;SDS011;6807;48.682;9.032;2022-09-09T11:25:21;2.03;;;1.50;;
13469;SDS011;6807;48.682;9.032;2022-09-09T11:27:58;2.08;;;1.40;;
13469;SDS011;6807;48.682;9.032;2022-09-09T11:30:43;0.90;;;0.90;;
13469;SDS011;6807;48.682;9.032;2022-09-09T11:33:31;1.48;;;0.98;;
13469;SDS011;6807;48.682;9.032;2022-09-09T11:36:24;0.80;;;0.80;;
13469;SDS011;6807;48.682;9.032;2022-09-09T11:42:05;1.02;;;0.90;;
13469;SDS011;6807;48.682;9.032;2022-09-09T11:44:35;2.45;;;0.90;;
13469;SDS011;6807;48.682;9.032;2022-09-09T11:47:02;0.80;;;0.80;;
13469;SDS011;6807;48.682;9.032;2022-09-09T11:49:30;0.70;;;0.70;;
13469;SDS011;6807;48.682;9.032;2022-09-09T11:52:12;0.82;;;0.82;;
13469;SDS011;6807;48.682;9.032;2022-09-09T11:54:48;0.93;;;0.90;;
13469;SDS011;6807;48.682;9.032;2022-09-09T11:57:21;0.82;;;0.82;;
13469;SDS011;6807;48.682;9.032;2022-09-09T11:59:51;0.70;;;0.70;;
13469;SDS011;6807;48.682;9.032;2022-09-09T12:02:22;0.75;;;0.73;;
13469;SDS011;6807;48.682;9.032;2022-09-09T12:04:54;1.98;;;0.73;;
13469;SDS011;6807;48.682;9.032;2022-09-09T12:07:28;1.60;;;0.77;;
13469;SDS011;6807;48.682;9.032;2022-09-09T12:10:00;0.68;;;0.68;;
13469;SDS011;6807;48.682;9.032;2022-09-09T12:12:34;1.15;;;0.90;;
13469;SDS011;6807;48.682;9.032;2022-09-09T12:15:22;0.88;;;0.88;;
13469;SDS011;6807;48.682;9.032;2022-09-09T12:17:54;1.38;;;0.98;;
13469;SDS011;6807;48.682;9.032;2022-09-09T12:20:25;0.93;;;0.82;;
13469;SDS011;6807;48.682;9.032;2022-09-09T12:23:07;2.15;;;1.00;;
13469;SDS011;6807;48.682;9.032;2022-09-09T12:25:50;5.90;;;1.08;;
13469;SDS011;6807;48.682;9.032;2022-09-09T12:28:32;0.98;;;0.75;;
13469;SDS011;6807;48.682;9.032;2022-09-09T12:31:15;1.33;;;1.08;;
13469;SDS011;6807;48.682;9.032;2022-09-09T12:33:48;1.02;;;0.95;;
13469;SDS011;6807;48.682;9.032;2022-09-09T12:36:18;1.73;;;1.10;;
13469;SDS011;6807;48.682;9.032;2022-09-09T12:38:49;1.98;;;1.10;;
13469;SDS011;6807;48.682;9.032;2022-09-09T12:43:47;2.65;;;1.20;;
13469;SDS011;6807;48.682;9.032;2022-09-09T12:46:17;2.30;;;1.10;;
13469;SDS011;6807;48.682;9.032;2022-09-09T12:48:51;1.80;;;1.25;;
13469;SDS011;6807;48.682;9.032;2022-09-09T12:51:23;1.65;;;0.77;;
13469;SDS011;6807;48.682;9.032;2022-09-09T12:53:54;1.70;;;1.00;;
13469;SDS011;6807;48.682;9.032;2022-09-09T12:56:24;1.65;;;1.05;;
13469;SDS011;6807;48.682;9.032;2022-09-09T12:58:54;1.83;;;1.17;;
13469;SDS011;6807;48.682;9.032;2022-09-09T13:01:24;1.42;;;1.00;;
13469;SDS011;6807;48.682;9.032;2022-09-09T13:03:53;1.67;;;1.10;;
13469;SDS011;6807;48.682;9.032;2022-09-09T13:06:23;2.33;;;1.13;;
13469;SDS011;6807;48.682;9.032;2022-09-09T13:08:51;2.88;;;1.40;;
13469;SDS011;6807;48.682;9.032;2022-09-09T13:11:22;1.95;;;0.98;;
13469;SDS011;6807;48.682;9.032;2022-09-09T13:13:54;1.55;;;0.98;;
13469;SDS011;6807;48.682;9.032;2022-09-09T13:16:25;1.50;;;0.90;;
13469;SDS011;6807;48.682;9.032;2022-09-09T13:18:55;0.90;;;0.85;;
13469;SDS011;6807;48.682;9.032;2022-09-09T13:21:31;0.95;;;0.95;;
13469;SDS011;6807;48.682;9.032;2022-09-09T13:23:59;3.97;;;1.70;;
13469;SDS011;6807;48.682;9.032;2022-09-09T13:26:29;1.25;;;1.05;;
13469;SDS011;6807;48.682;9.032;2022-09-09T13:29:07;1.55;;;1.10;;
13469;SDS011;6807;48.682;9.032;2022-09-09T13:31:42;2.10;;;1.20;;
13469;SDS011;6807;48.682;9.032;2022-09-09T13:34:13;1.33;;;1.15;;
13469;SDS011;6807;48.682;9.032;2022-09-09T13:36:55;1.13;;;0.98;;
13469;SDS011;6807;48.682;9.032;2022-09-09T13:39:30;2.63;;;1.10;;
13469;SDS011;6807;48.682;9.032;2022-09-09T13:41:59;3.10;;;1.17;;
13469;SDS011;6807;48.682;9.032;2022-09-09T13:44:28;3.28;;;1.10;;
13469;SDS011;6807;48.682;9.032;2022-09-09T13:47:01;0.80;;;0.80;;
13469;SDS011;6807;48.682;9.032;2022-09-09T13:49:30;4.85;;;1.10;;
13469;SDS011;6807;48.682;9.032;2022-09-09T13:52:08;0.95;;;0.82;;
13469;SDS011;6807;48.682;9.032;2022-09-09T13:54:38;1.55;;;0.95;;
13469;SDS011;6807;48.682;9.032;2022-09-09T13:57:14;2.38;;;0.98;;
13469;SDS011;6807;48.682;9.032;2022-09-09T13:59:44;3.25;;;1.17;;
13469;SDS011;6807;48.682;9.032;2022-09-09T14:02:13;3.88;;;1.38;;
13469;SDS011;6807;48.682;9.032;2022-09-09T14:04:47;2.30;;;1.23;;
13469;SDS011;6807;48.682;9.032;2022-09-09T14:07:16;1.58;;;1.13;;
13469;SDS011;6807;48.682;9.032;2022-09-09T14:09:45;1.10;;;1.02;;
13469;SDS011;6807;48.682;9.032;2022-09-09T14:12:20;1.58;;;0.80;;
13469;SDS011;6807;48.682;9.032;2022-09-09T14:14:52;1.40;;;0.93;;
13469;SDS011;6807;48.682;9.032;2022-09-09T14:17:19;2.10;;;0.95;;
13469;SDS011;6807;48.682;9.032;2022-09-09T14:19:47;3.00;;;1.13;;
13469;SDS011;6807;48.682;9.032;2022-09-09T14:22:14;2.55;;;0.95;;
13469;SDS011;6807;48.682;9.032;2022-09-09T14:24:46;1.42;;;1.05;;
13469;SDS011;6807;48.682;9.032;2022-09-09T14:27:21;1.02;;;0.90;;
13469;SDS011;6807;48.682;9.032;2022-09-09T14:29:58;1.77;;;1.00;;
13469;SDS011;6807;48.682;9.032;2022-09-09T14:32:25;2.30;;;1.00;;
13469;SDS011;6807;48.682;9.032;2022-09-09T14:34:52;0.90;;;0.90;;
13469;SDS011;6807;48.682;9.032;2022-09-09T14:37:20;3.78;;;1.35;;
13469;SDS011;6807;48.682;9.032;2022-09-09T14:39:47;1.92;;;0.98;;
13469;SDS011;6807;48.682;9.032;2022-09-09T14:42:15;1.13;;;0.90;;
13469;SDS011;6807;48.682;9.032;2022-09-09T14:44:43;2.97;;;1.30;;
13469;SDS011;6807;48.682;9.032;2022-09-09T14:47:10;1.90;;;1.00;;
13469;SDS011;6807;48.682;9.032;2022-09-09T14:49:37;1.08;;;1.00;;
13469;SDS011;6807;48.682;9.032;2022-09-09T14:52:04;1.60;;;0.90;;
13469;SDS011;6807;48.682;9.032;2022-09-09T14:54:31;1.02;;;0.80;;
13469;SDS011;6807;48.682;9.032;2022-09-09T14:56:58;2.40;;;1.17;;
13469;SDS011;6807;48.682;9.032;2022-09-09T14:59:27;1.85;;;1.00;;
13469;SDS011;6807;48.682;9.032;2022-09-09T15:01:56;1.30;;;1.00;;
13469;SDS011;6807;48.682;9.032;2022-09-09T15:04:23;2.25;;;1.10;;
13469;SDS011;6807;48.682;9.032;2022-09-09T15:06:50;1.88;;;1.10;;
13469;SDS011;6807;48.682;9.032;2022-09-09T15:09:18;2.80;;;1.30;;
13469;SDS011;6807;48.682;9.032;2022-09-09T15:11:45;1.33;;;1.00;;
13469;SDS011;6807;48.682;9.032;2022-09-09T15:14:12;2.33;;;1.33;;
13469;SDS011;6807;48.682;9.032;2022-09-09T15:16:39;2.55;;;1.00;;
13469;SDS011;6807;48.682;9.032;2022-09-09T15:19:08;2.75;;;1.48;;
13469;SDS011;6807;48.682;9.032;2022-09-09T15:21:36;2.53;;;1.10;;
13469;SDS011;6807;48.682;9.032;2022-09-09T15:24:03;1.52;;;1.25;;
13469;SDS011;6807;48.682;9.032;2022-09-09T15:26:32;2.22;;;1.20;;
13469;SDS011;6807;48.682;9.032;2022-09-09T15:28:59;2.60;;;1.17;;
13469;SDS011;6807;48.682;9.032;2022-09-09T15:31:27;2.08;;;1.30;;
13469;SDS011;6807;48.682;9.032;2022-09-09T15:33:55;0.90;;;0.90;;